sensor_id;sensor_type;location;lat;lon;timestamp;temperature;humidity
25352;DHT22;13304;48.464;8.712;2023-07-13T00:01:31;22.80;63.50
25352;DHT22;13304;48.464;8.712;2023-07-13T00:03:57;22.80;63.50
25352;DHT22;13304;48.464;8.712;2023-07-13T00:06:23;22.80;64.00
25352;DHT22;13304;48.464;8.712;2023-07-13T00:08:49;22.70;64.50
25352;DHT22;13304;48.464;8.712;2023-07-13T00:11:16;22.70;64.70
25352;DHT22;13304;48.464;8.712;2023-07-13T00:13:42;22.70;64.70
25352;DHT22;13304;48.464;8.712;2023-07-13T00:16:09;22.70;64.70
25352;DHT22;13304;48.464;8.712;2023-07-13T00:18:36;22.70;64.70
25352;DHT22;13304;48.464;8.712;2023-07-13T00:21:03;22.60;64.70
25352;DHT22;13304;48.464;8.712;2023-07-13T00:23:34;22.60;65.00
25352;DHT22;13304;48.464;8.712;2023-07-13T00:26:04;22.60;65.10
25352;DHT22;13304;48.464;8.712;2023-07-13T00:28:30;22.50;65.10
25352;DHT22;13304;48.464;8.712;2023-07-13T00:30:56;22.60;65.00
25352;DHT22;13304;48.464;8.712;2023-07-13T00:33:21;22.50;64.50
25352;DHT22;13304;48.464;8.712;2023-07-13T00:35:48;22.50;64.80
25352;DHT22;13304;48.464;8.712;2023-07-13T00:38:15;22.50;64.20
25352;DHT22;13304;48.464;8.712;2023-07-13T00:40:40;22.50;64.20
25352;DHT22;13304;48.464;8.712;2023-07-13T00:43:15;22.50;63.90
25352;DHT22;13304;48.464;8.712;2023-07-13T00:48:12;22.40;62.90
25352;DHT22;13304;48.464;8.712;2023-07-13T00:50:39;22.40;63.30
25352;DHT22;13304;48.464;8.712;2023-07-13T00:53:06;22.40;63.10
25352;DHT22;13304;48.464;8.712;2023-07-13T00:55:33;22.40;62.40
25352;DHT22;13304;48.464;8.712;2023-07-13T00:57:59;22.40;61.90
25352;DHT22;13304;48.464;8.712;2023-07-13T01:00:25;22.40;62.00
25352;DHT22;13304;48.464;8.712;2023-07-13T01:02:52;22.30;61.90
25352;DHT22;13304;48.464;8.712;2023-07-13T01:05:21;22.30;62.00
25352;DHT22;13304;48.464;8.712;2023-07-13T01:07:49;22.30;62.30
25352;DHT22;13304;48.464;8.712;2023-07-13T01:10:16;22.30;61.30
25352;DHT22;13304;48.464;8.712;2023-07-13T01:12:43;22.30;61.50
25352;DHT22;13304;48.464;8.712;2023-07-13T01:18:00;22.20;61.20
25352;DHT22;13304;48.464;8.712;2023-07-13T01:20:26;22.30;62.10
25352;DHT22;13304;48.464;8.712;2023-07-13T01:22:52;22.30;62.50
25352;DHT22;13304;48.464;8.712;2023-07-13T01:25:18;22.30;62.90
25352;DHT22;13304;48.464;8.712;2023-07-13T01:27:44;22.30;63.00
25352;DHT22;13304;48.464;8.712;2023-07-13T01:30:10;22.30;63.40
25352;DHT22;13304;48.464;8.712;2023-07-13T01:32:35;22.20;63.40
25352;DHT22;13304;48.464;8.712;2023-07-13T01:35:02;22.20;63.50
25352;DHT22;13304;48.464;8.712;2023-07-13T01:37:28;22.10;63.90
25352;DHT22;13304;48.464;8.712;2023-07-13T01:39:59;22.10;64.20
25352;DHT22;13304;48.464;8.712;2023-07-13T01:42:24;22.10;64.80
25352;DHT22;13304;48.464;8.712;2023-07-13T01:44:50;22.00;64.90
25352;DHT22;13304;48.464;8.712;2023-07-13T01:47:16;22.00;65.00
25352;DHT22;13304;48.464;8.712;2023-07-13T01:49:42;21.90;64.90
25352;DHT22;13304;48.464;8.712;2023-07-13T01:52:07;21.90;64.90
25352;DHT22;13304;48.464;8.712;2023-07-13T01:54:33;21.90;64.40
25352;DHT22;13304;48.464;8.712;2023-07-13T01:56:59;21.80;64.20
25352;DHT22;13304;48.464;8.712;2023-07-13T01:59:25;21.70;63.80
25352;DHT22;13304;48.464;8.712;2023-07-13T02:01:51;21.70;63.60
25352;DHT22;13304;48.464;8.712;2023-07-13T02:04:17;21.70;63.70
25352;DHT22;13304;48.464;8.712;2023-07-13T02:06:42;21.70;63.70
25352;DHT22;13304;48.464;8.712;2023-07-13T02:09:08;21.60;64.00
25352;DHT22;13304;48.464;8.712;2023-07-13T02:11:34;21.60;64.20
25352;DHT22;13304;48.464;8.712;2023-07-13T02:14:00;21.50;64.00
25352;DHT22;13304;48.464;8.712;2023-07-13T02:16:27;21.50;64.20
25352;DHT22;13304;48.464;8.712;2023-07-13T02:18:53;21.50;64.70
25352;DHT22;13304;48.464;8.712;2023-07-13T02:21:19;21.50;64.80
25352;DHT22;13304;48.464;8.712;2023-07-13T02:23:44;21.40;65.20
25352;DHT22;13304;48.464;8.712;2023-07-13T02:26:10;21.40;65.40
25352;DHT22;13304;48.464;8.712;2023-07-13T02:28:36;21.40;65.40
25352;DHT22;13304;48.464;8.712;2023-07-13T02:31:07;21.40;65.10
25352;DHT22;13304;48.464;8.712;2023-07-13T02:33:32;21.40;65.40
25352;DHT22;13304;48.464;8.712;2023-07-13T02:35:58;21.40;65.70
25352;DHT22;13304;48.464;8.712;2023-07-13T02:38:24;21.30;65.80
25352;DHT22;13304;48.464;8.712;2023-07-13T02:40:50;21.40;66.80
25352;DHT22;13304;48.464;8.712;2023-07-13T02:43:18;21.30;65.90
25352;DHT22;13304;48.464;8.712;2023-07-13T02:45:44;21.30;66.10
25352;DHT22;13304;48.464;8.712;2023-07-13T02:48:13;21.30;66.00
25352;DHT22;13304;48.464;8.712;2023-07-13T02:50:39;21.20;66.10
25352;DHT22;13304;48.464;8.712;2023-07-13T02:53:05;21.20;66.50
25352;DHT22;13304;48.464;8.712;2023-07-13T02:55:30;21.10;66.60
25352;DHT22;13304;48.464;8.712;2023-07-13T02:57:56;21.10;66.80
25352;DHT22;13304;48.464;8.712;2023-07-13T03:00:22;21.10;67.00
25352;DHT22;13304;48.464;8.712;2023-07-13T03:02:48;21.00;67.20
25352;DHT22;13304;48.464;8.712;2023-07-13T03:05:14;21.00;67.20
25352;DHT22;13304;48.464;8.712;2023-07-13T03:07:40;21.00;67.10
25352;DHT22;13304;48.464;8.712;2023-07-13T03:10:06;21.00;67.20
25352;DHT22;13304;48.464;8.712;2023-07-13T03:12:32;21.00;67.10
25352;DHT22;13304;48.464;8.712;2023-07-13T03:14:58;21.00;67.00
25352;DHT22;13304;48.464;8.712;2023-07-13T03:17:24;21.00;67.70
25352;DHT22;13304;48.464;8.712;2023-07-13T03:19:49;21.00;66.60
25352;DHT22;13304;48.464;8.712;2023-07-13T03:22:19;21.00;66.40
25352;DHT22;13304;48.464;8.712;2023-07-13T03:24:46;20.90;66.10
25352;DHT22;13304;48.464;8.712;2023-07-13T03:27:12;21.00;66.40
25352;DHT22;13304;48.464;8.712;2023-07-13T03:29:38;20.90;66.30
25352;DHT22;13304;48.464;8.712;2023-07-13T03:32:04;20.90;66.50
25352;DHT22;13304;48.464;8.712;2023-07-13T03:34:30;20.90;66.80
25352;DHT22;13304;48.464;8.712;2023-07-13T03:36:56;20.90;67.00
25352;DHT22;13304;48.464;8.712;2023-07-13T03:39:22;20.80;66.90
25352;DHT22;13304;48.464;8.712;2023-07-13T03:41:48;20.80;66.90
25352;DHT22;13304;48.464;8.712;2023-07-13T03:44:16;20.80;66.80
25352;DHT22;13304;48.464;8.712;2023-07-13T03:46:42;20.70;66.80
25352;DHT22;13304;48.464;8.712;2023-07-13T03:49:08;20.70;66.90
25352;DHT22;13304;48.464;8.712;2023-07-13T03:51:34;20.70;67.10
25352;DHT22;13304;48.464;8.712;2023-07-13T03:54:00;20.60;67.30
25352;DHT22;13304;48.464;8.712;2023-07-13T03:56:28;20.60;67.20
25352;DHT22;13304;48.464;8.712;2023-07-13T03:58:55;20.50;67.30
25352;DHT22;13304;48.464;8.712;2023-07-13T04:01:22;20.50;67.50
25352;DHT22;13304;48.464;8.712;2023-07-13T04:03:49;20.50;67.80
25352;DHT22;13304;48.464;8.712;2023-07-13T04:06:18;20.50;68.20
25352;DHT22;13304;48.464;8.712;2023-07-13T04:08:52;20.40;68.10
25352;DHT22;13304;48.464;8.712;2023-07-13T04:11:19;20.40;68.20
25352;DHT22;13304;48.464;8.712;2023-07-13T04:13:46;20.40;68.30
25352;DHT22;13304;48.464;8.712;2023-07-13T04:16:13;20.40;68.50
25352;DHT22;13304;48.464;8.712;2023-07-13T04:18:38;20.30;68.50
25352;DHT22;13304;48.464;8.712;2023-07-13T04:21:04;20.30;68.70
25352;DHT22;13304;48.464;8.712;2023-07-13T04:23:30;20.30;68.80
25352;DHT22;13304;48.464;8.712;2023-07-13T04:25:56;20.30;68.90
25352;DHT22;13304;48.464;8.712;2023-07-13T04:28:23;20.20;68.90
25352;DHT22;13304;48.464;8.712;2023-07-13T04:30:49;20.30;69.20
25352;DHT22;13304;48.464;8.712;2023-07-13T04:33:16;20.30;69.30
25352;DHT22;13304;48.464;8.712;2023-07-13T04:35:51;20.20;69.20
25352;DHT22;13304;48.464;8.712;2023-07-13T04:38:27;20.20;69.10
25352;DHT22;13304;48.464;8.712;2023-07-13T04:41:01;20.20;69.00
25352;DHT22;13304;48.464;8.712;2023-07-13T04:43:27;20.20;69.00
25352;DHT22;13304;48.464;8.712;2023-07-13T04:45:54;20.20;69.20
25352;DHT22;13304;48.464;8.712;2023-07-13T04:48:20;20.20;69.50
25352;DHT22;13304;48.464;8.712;2023-07-13T04:50:47;20.20;69.50
25352;DHT22;13304;48.464;8.712;2023-07-13T04:53:13;20.20;70.00
25352;DHT22;13304;48.464;8.712;2023-07-13T04:55:39;20.20;70.20
25352;DHT22;13304;48.464;8.712;2023-07-13T04:58:05;20.20;70.10
25352;DHT22;13304;48.464;8.712;2023-07-13T05:00:31;20.30;69.80
25352;DHT22;13304;48.464;8.712;2023-07-13T05:02:57;20.30;69.60
25352;DHT22;13304;48.464;8.712;2023-07-13T05:05:24;20.30;70.00
25352;DHT22;13304;48.464;8.712;2023-07-13T05:07:51;20.30;70.50
25352;DHT22;13304;48.464;8.712;2023-07-13T05:10:17;20.40;70.90
25352;DHT22;13304;48.464;8.712;2023-07-13T05:12:43;20.40;71.20
25352;DHT22;13304;48.464;8.712;2023-07-13T05:15:09;20.40;71.20
25352;DHT22;13304;48.464;8.712;2023-07-13T05:17:35;20.40;71.10
25352;DHT22;13304;48.464;8.712;2023-07-13T05:20:01;20.40;71.10
25352;DHT22;13304;48.464;8.712;2023-07-13T05:22:26;20.40;71.30
25352;DHT22;13304;48.464;8.712;2023-07-13T05:24:52;20.40;71.30
25352;DHT22;13304;48.464;8.712;2023-07-13T05:27:18;20.40;71.20
25352;DHT22;13304;48.464;8.712;2023-07-13T05:29:43;20.50;71.00
25352;DHT22;13304;48.464;8.712;2023-07-13T05:32:10;20.50;70.80
25352;DHT22;13304;48.464;8.712;2023-07-13T05:34:35;20.50;70.60
25352;DHT22;13304;48.464;8.712;2023-07-13T05:37:01;20.50;70.70
25352;DHT22;13304;48.464;8.712;2023-07-13T05:39:27;20.50;70.90
25352;DHT22;13304;48.464;8.712;2023-07-13T05:41:53;20.50;71.00
25352;DHT22;13304;48.464;8.712;2023-07-13T05:44:19;20.50;71.10
25352;DHT22;13304;48.464;8.712;2023-07-13T05:46:45;20.50;71.30
25352;DHT22;13304;48.464;8.712;2023-07-13T05:49:11;20.50;71.50
25352;DHT22;13304;48.464;8.712;2023-07-13T05:51:37;20.50;71.70
25352;DHT22;13304;48.464;8.712;2023-07-13T05:54:03;20.60;71.90
25352;DHT22;13304;48.464;8.712;2023-07-13T05:56:28;20.60;71.70
25352;DHT22;13304;48.464;8.712;2023-07-13T05:58:55;20.60;71.60
25352;DHT22;13304;48.464;8.712;2023-07-13T06:01:21;20.60;71.70
25352;DHT22;13304;48.464;8.712;2023-07-13T06:03:48;20.70;71.60
25352;DHT22;13304;48.464;8.712;2023-07-13T06:06:18;20.70;71.40
25352;DHT22;13304;48.464;8.712;2023-07-13T06:08:46;20.70;71.10
25352;DHT22;13304;48.464;8.712;2023-07-13T06:11:22;20.80;71.20
25352;DHT22;13304;48.464;8.712;2023-07-13T06:13:48;20.80;70.80
25352;DHT22;13304;48.464;8.712;2023-07-13T06:16:14;20.90;71.10
25352;DHT22;13304;48.464;8.712;2023-07-13T06:18:40;20.90;71.00
25352;DHT22;13304;48.464;8.712;2023-07-13T06:21:15;20.90;70.80
25352;DHT22;13304;48.464;8.712;2023-07-13T06:23:42;20.90;70.50
25352;DHT22;13304;48.464;8.712;2023-07-13T06:26:11;21.00;70.20
25352;DHT22;13304;48.464;8.712;2023-07-13T06:28:37;21.00;70.10
25352;DHT22;13304;48.464;8.712;2023-07-13T06:31:06;21.10;70.30
25352;DHT22;13304;48.464;8.712;2023-07-13T06:33:32;21.10;70.10
25352;DHT22;13304;48.464;8.712;2023-07-13T06:35:58;21.10;70.00
25352;DHT22;13304;48.464;8.712;2023-07-13T06:38:24;21.20;69.70
25352;DHT22;13304;48.464;8.712;2023-07-13T06:40:50;21.20;69.70
25352;DHT22;13304;48.464;8.712;2023-07-13T06:43:15;21.30;69.40
25352;DHT22;13304;48.464;8.712;2023-07-13T06:45:46;21.30;68.90
25352;DHT22;13304;48.464;8.712;2023-07-13T06:48:15;21.30;68.00
25352;DHT22;13304;48.464;8.712;2023-07-13T06:50:41;21.40;67.60
25352;DHT22;13304;48.464;8.712;2023-07-13T06:53:07;21.40;67.10
25352;DHT22;13304;48.464;8.712;2023-07-13T06:55:33;21.50;66.80
25352;DHT22;13304;48.464;8.712;2023-07-13T06:57:59;21.60;66.60
25352;DHT22;13304;48.464;8.712;2023-07-13T07:00:24;21.60;65.20
25352;DHT22;13304;48.464;8.712;2023-07-13T07:02:50;21.70;65.10
25352;DHT22;13304;48.464;8.712;2023-07-13T07:05:16;21.70;63.90
25352;DHT22;13304;48.464;8.712;2023-07-13T07:07:43;21.80;63.80
25352;DHT22;13304;48.464;8.712;2023-07-13T07:10:09;21.80;64.00
25352;DHT22;13304;48.464;8.712;2023-07-13T07:12:35;21.90;62.30
25352;DHT22;13304;48.464;8.712;2023-07-13T07:15:00;22.00;61.80
25352;DHT22;13304;48.464;8.712;2023-07-13T07:17:26;22.00;61.50
25352;DHT22;13304;48.464;8.712;2023-07-13T07:19:52;22.10;61.80
25352;DHT22;13304;48.464;8.712;2023-07-13T07:22:21;22.10;60.80
25352;DHT22;13304;48.464;8.712;2023-07-13T07:24:47;22.20;60.50
25352;DHT22;13304;48.464;8.712;2023-07-13T07:27:13;22.30;60.40
25352;DHT22;13304;48.464;8.712;2023-07-13T07:29:39;22.30;59.80
25352;DHT22;13304;48.464;8.712;2023-07-13T07:32:05;22.40;59.40
25352;DHT22;13304;48.464;8.712;2023-07-13T07:34:30;22.40;59.50
25352;DHT22;13304;48.464;8.712;2023-07-13T07:36:59;22.50;59.60
25352;DHT22;13304;48.464;8.712;2023-07-13T07:39:26;22.50;59.50
25352;DHT22;13304;48.464;8.712;2023-07-13T07:41:52;22.60;59.20
25352;DHT22;13304;48.464;8.712;2023-07-13T07:44:17;22.60;59.50
25352;DHT22;13304;48.464;8.712;2023-07-13T07:46:48;22.70;59.30
25352;DHT22;13304;48.464;8.712;2023-07-13T07:49:17;22.70;59.10
25352;DHT22;13304;48.464;8.712;2023-07-13T07:51:42;22.80;58.40
25352;DHT22;13304;48.464;8.712;2023-07-13T07:54:09;22.80;58.40
25352;DHT22;13304;48.464;8.712;2023-07-13T07:56:35;22.90;58.60
25352;DHT22;13304;48.464;8.712;2023-07-13T07:59:03;22.90;57.80
25352;DHT22;13304;48.464;8.712;2023-07-13T08:01:29;22.80;55.40
25352;DHT22;13304;48.464;8.712;2023-07-13T08:03:54;22.90;56.30
25352;DHT22;13304;48.464;8.712;2023-07-13T08:06:20;23.00;57.50
25352;DHT22;13304;48.464;8.712;2023-07-13T08:08:47;23.00;57.60
25352;DHT22;13304;48.464;8.712;2023-07-13T08:11:13;23.00;56.00
25352;DHT22;13304;48.464;8.712;2023-07-13T08:13:39;23.10;56.70
25352;DHT22;13304;48.464;8.712;2023-07-13T08:16:05;23.10;55.80
25352;DHT22;13304;48.464;8.712;2023-07-13T08:18:31;23.20;56.10
25352;DHT22;13304;48.464;8.712;2023-07-13T08:20:57;23.30;56.40
25352;DHT22;13304;48.464;8.712;2023-07-13T08:23:24;23.30;56.00
25352;DHT22;13304;48.464;8.712;2023-07-13T08:25:51;23.30;56.00
25352;DHT22;13304;48.464;8.712;2023-07-13T08:28:17;23.40;56.10
25352;DHT22;13304;48.464;8.712;2023-07-13T08:30:43;23.40;55.10
25352;DHT22;13304;48.464;8.712;2023-07-13T08:33:08;23.50;55.90
25352;DHT22;13304;48.464;8.712;2023-07-13T08:35:34;23.50;55.70
25352;DHT22;13304;48.464;8.712;2023-07-13T08:38:00;23.60;56.00
25352;DHT22;13304;48.464;8.712;2023-07-13T08:40:27;23.70;55.90
25352;DHT22;13304;48.464;8.712;2023-07-13T08:42:58;23.70;55.70
25352;DHT22;13304;48.464;8.712;2023-07-13T08:47:54;23.90;56.00
25352;DHT22;13304;48.464;8.712;2023-07-13T08:50:27;23.90;55.90
25352;DHT22;13304;48.464;8.712;2023-07-13T08:52:55;24.00;55.50
25352;DHT22;13304;48.464;8.712;2023-07-13T08:55:26;24.00;54.60
25352;DHT22;13304;48.464;8.712;2023-07-13T08:58:15;24.10;54.90
25352;DHT22;13304;48.464;8.712;2023-07-13T09:01:00;24.20;54.20
25352;DHT22;13304;48.464;8.712;2023-07-13T09:03:35;24.20;53.70
25352;DHT22;13304;48.464;8.712;2023-07-13T09:06:03;24.30;54.10
25352;DHT22;13304;48.464;8.712;2023-07-13T09:16:41;24.50;52.80
25352;DHT22;13304;48.464;8.712;2023-07-13T09:19:20;24.70;55.00
25352;DHT22;13304;48.464;8.712;2023-07-13T09:21:49;24.70;53.30
25352;DHT22;13304;48.464;8.712;2023-07-13T09:24:41;24.80;51.70
25352;DHT22;13304;48.464;8.712;2023-07-13T09:27:35;24.70;49.90
25352;DHT22;13304;48.464;8.712;2023-07-13T09:30:33;24.80;51.10
25352;DHT22;13304;48.464;8.712;2023-07-13T09:33:01;24.80;52.40
25352;DHT22;13304;48.464;8.712;2023-07-13T09:35:29;24.90;53.40
25352;DHT22;13304;48.464;8.712;2023-07-13T09:38:03;24.90;53.30
25352;DHT22;13304;48.464;8.712;2023-07-13T09:43:20;24.80;51.50
25352;DHT22;13304;48.464;8.712;2023-07-13T09:45:47;24.80;50.50
25352;DHT22;13304;48.464;8.712;2023-07-13T09:48:15;24.80;50.00
25352;DHT22;13304;48.464;8.712;2023-07-13T09:50:42;24.80;51.10
25352;DHT22;13304;48.464;8.712;2023-07-13T09:53:16;24.80;52.20
25352;DHT22;13304;48.464;8.712;2023-07-13T09:55:44;24.80;52.20
25352;DHT22;13304;48.464;8.712;2023-07-13T10:00:44;24.80;50.10
25352;DHT22;13304;48.464;8.712;2023-07-13T10:03:21;24.80;50.80
25352;DHT22;13304;48.464;8.712;2023-07-13T10:05:50;24.80;48.90
25352;DHT22;13304;48.464;8.712;2023-07-13T10:08:26;24.80;49.10
25352;DHT22;13304;48.464;8.712;2023-07-13T10:11:02;24.80;48.60
25352;DHT22;13304;48.464;8.712;2023-07-13T10:13:36;24.90;49.20
25352;DHT22;13304;48.464;8.712;2023-07-13T10:16:06;25.00;50.30
25352;DHT22;13304;48.464;8.712;2023-07-13T10:18:42;25.10;50.60
25352;DHT22;13304;48.464;8.712;2023-07-13T10:21:20;25.10;47.60
25352;DHT22;13304;48.464;8.712;2023-07-13T10:23:58;25.20;46.90
25352;DHT22;13304;48.464;8.712;2023-07-13T10:26:33;25.30;46.50
25352;DHT22;13304;48.464;8.712;2023-07-13T10:29:09;25.40;47.60
25352;DHT22;13304;48.464;8.712;2023-07-13T10:31:38;25.50;47.70
25352;DHT22;13304;48.464;8.712;2023-07-13T10:34:04;25.60;46.80
25352;DHT22;13304;48.464;8.712;2023-07-13T10:39:09;25.60;44.20
25352;DHT22;13304;48.464;8.712;2023-07-13T10:41:40;25.70;46.50
25352;DHT22;13304;48.464;8.712;2023-07-13T10:44:24;25.70;46.80
25352;DHT22;13304;48.464;8.712;2023-07-13T10:47:11;25.70;43.70
25352;DHT22;13304;48.464;8.712;2023-07-13T10:49:40;25.70;44.90
25352;DHT22;13304;48.464;8.712;2023-07-13T10:55:05;25.70;45.20
25352;DHT22;13304;48.464;8.712;2023-07-13T10:57:42;25.70;45.00
25352;DHT22;13304;48.464;8.712;2023-07-13T11:00:16;25.70;45.60
25352;DHT22;13304;48.464;8.712;2023-07-13T11:02:43;25.70;44.40
25352;DHT22;13304;48.464;8.712;2023-07-13T11:05:29;25.70;45.50
25352;DHT22;13304;48.464;8.712;2023-07-13T11:10:55;25.70;44.70
25352;DHT22;13304;48.464;8.712;2023-07-13T11:16:42;25.70;44.40
25352;DHT22;13304;48.464;8.712;2023-07-13T11:24:51;25.70;41.70
25352;DHT22;13304;48.464;8.712;2023-07-13T11:35:45;25.70;43.70
25352;DHT22;13304;48.464;8.712;2023-07-13T11:38:17;25.70;42.40
25352;DHT22;13304;48.464;8.712;2023-07-13T11:40:45;25.70;42.80
25352;DHT22;13304;48.464;8.712;2023-07-13T11:43:14;25.70;42.20
25352;DHT22;13304;48.464;8.712;2023-07-13T11:45:41;25.70;42.30
25352;DHT22;13304;48.464;8.712;2023-07-13T11:48:22;25.70;43.30
25352;DHT22;13304;48.464;8.712;2023-07-13T11:50:56;25.70;42.00
25352;DHT22;13304;48.464;8.712;2023-07-13T11:53:24;25.70;42.30
25352;DHT22;13304;48.464;8.712;2023-07-13T11:55:51;25.70;44.60
25352;DHT22;13304;48.464;8.712;2023-07-13T11:58:21;25.70;43.00
25352;DHT22;13304;48.464;8.712;2023-07-13T12:00:49;25.70;43.30
25352;DHT22;13304;48.464;8.712;2023-07-13T12:03:20;25.70;42.90
25352;DHT22;13304;48.464;8.712;2023-07-13T12:06:00;25.70;40.50
25352;DHT22;13304;48.464;8.712;2023-07-13T12:08:27;25.70;41.30
25352;DHT22;13304;48.464;8.712;2023-07-13T12:11:19;25.80;42.70
25352;DHT22;13304;48.464;8.712;2023-07-13T12:13:46;25.80;42.40
25352;DHT22;13304;48.464;8.712;2023-07-13T12:16:27;25.90;43.00
25352;DHT22;13304;48.464;8.712;2023-07-13T12:18:54;25.80;41.70
25352;DHT22;13304;48.464;8.712;2023-07-13T12:21:27;25.90;42.20
25352;DHT22;13304;48.464;8.712;2023-07-13T12:23:55;26.00;42.50
25352;DHT22;13304;48.464;8.712;2023-07-13T12:26:20;26.00;41.40
25352;DHT22;13304;48.464;8.712;2023-07-13T12:28:49;26.00;41.60
25352;DHT22;13304;48.464;8.712;2023-07-13T12:31:39;26.10;42.00
25352;DHT22;13304;48.464;8.712;2023-07-13T12:34:16;26.20;40.80
25352;DHT22;13304;48.464;8.712;2023-07-13T12:44:41;26.40;39.00
25352;DHT22;13304;48.464;8.712;2023-07-13T12:47:14;26.40;40.20
25352;DHT22;13304;48.464;8.712;2023-07-13T12:49:43;26.40;41.30
25352;DHT22;13304;48.464;8.712;2023-07-13T12:52:27;26.40;41.50
25352;DHT22;13304;48.464;8.712;2023-07-13T12:54:57;26.40;40.10
25352;DHT22;13304;48.464;8.712;2023-07-13T12:57:24;26.40;40.90
25352;DHT22;13304;48.464;8.712;2023-07-13T12:59:54;26.50;40.70
25352;DHT22;13304;48.464;8.712;2023-07-13T13:02:35;26.50;39.60
25352;DHT22;13304;48.464;8.712;2023-07-13T13:05:01;26.50;40.90
25352;DHT22;13304;48.464;8.712;2023-07-13T13:07:30;26.60;40.50
25352;DHT22;13304;48.464;8.712;2023-07-13T13:09:56;26.60;40.50
25352;DHT22;13304;48.464;8.712;2023-07-13T13:12:22;26.60;40.50
25352;DHT22;13304;48.464;8.712;2023-07-13T13:14:51;26.70;41.00
25352;DHT22;13304;48.464;8.712;2023-07-13T13:17:30;26.70;40.00
25352;DHT22;13304;48.464;8.712;2023-07-13T13:19:56;26.70;39.90
25352;DHT22;13304;48.464;8.712;2023-07-13T13:22:22;26.80;40.60
25352;DHT22;13304;48.464;8.712;2023-07-13T13:24:48;26.90;40.30
25352;DHT22;13304;48.464;8.712;2023-07-13T13:27:19;26.80;39.20
25352;DHT22;13304;48.464;8.712;2023-07-13T13:29:46;26.90;40.20
25352;DHT22;13304;48.464;8.712;2023-07-13T13:32:13;26.90;40.60
25352;DHT22;13304;48.464;8.712;2023-07-13T13:34:39;26.90;40.70
25352;DHT22;13304;48.464;8.712;2023-07-13T13:37:22;26.90;40.90
25352;DHT22;13304;48.464;8.712;2023-07-13T13:39:50;26.90;40.50
25352;DHT22;13304;48.464;8.712;2023-07-13T13:42:17;26.90;41.00
25352;DHT22;13304;48.464;8.712;2023-07-13T13:44:43;27.00;40.80
25352;DHT22;13304;48.464;8.712;2023-07-13T13:47:27;26.90;39.60
25352;DHT22;13304;48.464;8.712;2023-07-13T13:49:54;26.90;39.10
25352;DHT22;13304;48.464;8.712;2023-07-13T13:52:20;26.90;39.90
25352;DHT22;13304;48.464;8.712;2023-07-13T13:54:45;27.00;40.20
25352;DHT22;13304;48.464;8.712;2023-07-13T13:57:11;27.00;40.00
25352;DHT22;13304;48.464;8.712;2023-07-13T13:59:38;27.00;39.90
25352;DHT22;13304;48.464;8.712;2023-07-13T14:02:21;27.00;40.00
25352;DHT22;13304;48.464;8.712;2023-07-13T14:04:53;27.00;39.50
25352;DHT22;13304;48.464;8.712;2023-07-13T14:07:19;27.00;40.40
25352;DHT22;13304;48.464;8.712;2023-07-13T14:09:45;27.10;40.40
25352;DHT22;13304;48.464;8.712;2023-07-13T14:12:11;27.10;40.10
25352;DHT22;13304;48.464;8.712;2023-07-13T14:14:39;27.10;40.10
25352;DHT22;13304;48.464;8.712;2023-07-13T14:17:31;27.10;39.60
25352;DHT22;13304;48.464;8.712;2023-07-13T14:19:56;27.10;38.50
25352;DHT22;13304;48.464;8.712;2023-07-13T14:22:26;27.10;39.40
25352;DHT22;13304;48.464;8.712;2023-07-13T14:24:55;27.10;39.40
25352;DHT22;13304;48.464;8.712;2023-07-13T14:27:23;27.20;38.90
25352;DHT22;13304;48.464;8.712;2023-07-13T14:29:50;27.20;40.20
25352;DHT22;13304;48.464;8.712;2023-07-13T14:32:15;27.20;39.90
25352;DHT22;13304;48.464;8.712;2023-07-13T14:34:41;27.20;40.20
25352;DHT22;13304;48.464;8.712;2023-07-13T14:37:13;27.30;40.40
25352;DHT22;13304;48.464;8.712;2023-07-13T14:39:42;27.30;40.70
25352;DHT22;13304;48.464;8.712;2023-07-13T14:42:09;27.40;41.10
25352;DHT22;13304;48.464;8.712;2023-07-13T14:44:35;27.50;41.10
25352;DHT22;13304;48.464;8.712;2023-07-13T14:47:04;27.60;39.60
25352;DHT22;13304;48.464;8.712;2023-07-13T14:49:42;27.60;38.70
25352;DHT22;13304;48.464;8.712;2023-07-13T14:52:23;27.70;40.00
25352;DHT22;13304;48.464;8.712;2023-07-13T14:54:49;27.80;40.10
25352;DHT22;13304;48.464;8.712;2023-07-13T14:57:19;27.90;41.40
25352;DHT22;13304;48.464;8.712;2023-07-13T14:59:47;27.90;42.30
25352;DHT22;13304;48.464;8.712;2023-07-13T15:04:44;28.00;40.10
25352;DHT22;13304;48.464;8.712;2023-07-13T15:07:11;28.00;41.50
25352;DHT22;13304;48.464;8.712;2023-07-13T15:09:37;28.10;40.70
25352;DHT22;13304;48.464;8.712;2023-07-13T15:12:03;28.20;40.40
25352;DHT22;13304;48.464;8.712;2023-07-13T15:14:30;28.40;41.30
25352;DHT22;13304;48.464;8.712;2023-07-13T15:16:56;28.50;40.70
25352;DHT22;13304;48.464;8.712;2023-07-13T15:19:23;28.60;40.00
25352;DHT22;13304;48.464;8.712;2023-07-13T15:21:49;28.60;39.10
25352;DHT22;13304;48.464;8.712;2023-07-13T15:24:15;28.60;39.20
25352;DHT22;13304;48.464;8.712;2023-07-13T15:26:42;28.60;39.20
25352;DHT22;13304;48.464;8.712;2023-07-13T15:29:14;28.60;39.60
25352;DHT22;13304;48.464;8.712;2023-07-13T15:31:40;28.40;39.60
25352;DHT22;13304;48.464;8.712;2023-07-13T15:34:18;28.30;39.50
25352;DHT22;13304;48.464;8.712;2023-07-13T15:36:44;28.10;39.40
25352;DHT22;13304;48.464;8.712;2023-07-13T15:39:15;28.10;40.30
25352;DHT22;13304;48.464;8.712;2023-07-13T15:41:45;27.90;40.40
25352;DHT22;13304;48.464;8.712;2023-07-13T15:44:22;27.80;40.60
25352;DHT22;13304;48.464;8.712;2023-07-13T15:46:49;27.70;40.20
25352;DHT22;13304;48.464;8.712;2023-07-13T15:49:15;27.70;40.50
25352;DHT22;13304;48.464;8.712;2023-07-13T15:51:41;27.60;40.30
25352;DHT22;13304;48.464;8.712;2023-07-13T15:54:12;27.50;41.10
25352;DHT22;13304;48.464;8.712;2023-07-13T15:56:39;27.50;41.00
25352;DHT22;13304;48.464;8.712;2023-07-13T15:59:09;27.40;41.20
25352;DHT22;13304;48.464;8.712;2023-07-13T16:01:38;27.40;40.90
25352;DHT22;13304;48.464;8.712;2023-07-13T16:04:06;27.40;41.20
25352;DHT22;13304;48.464;8.712;2023-07-13T16:06:36;27.50;41.70
25352;DHT22;13304;48.464;8.712;2023-07-13T16:09:03;27.50;40.70
25352;DHT22;13304;48.464;8.712;2023-07-13T16:11:37;27.60;41.30
25352;DHT22;13304;48.464;8.712;2023-07-13T16:14:03;27.70;39.90
25352;DHT22;13304;48.464;8.712;2023-07-13T16:16:31;27.90;40.20
25352;DHT22;13304;48.464;8.712;2023-07-13T16:18:59;28.10;39.90
25352;DHT22;13304;48.464;8.712;2023-07-13T16:21:30;28.20;39.50
25352;DHT22;13304;48.464;8.712;2023-07-13T16:23:57;28.30;38.30
25352;DHT22;13304;48.464;8.712;2023-07-13T16:26:29;28.30;38.70
25352;DHT22;13304;48.464;8.712;2023-07-13T16:29:19;28.30;39.10
25352;DHT22;13304;48.464;8.712;2023-07-13T16:34:34;28.00;38.40
25352;DHT22;13304;48.464;8.712;2023-07-13T16:37:01;28.00;39.40
25352;DHT22;13304;48.464;8.712;2023-07-13T16:39:28;27.90;39.20